sensor_id;sensor_type;location;lat;lon;timestamp;P1;durP1;ratioP1;P2;durP2;ratioP2
50417;SDS011;36346;48.280;14.292;2024-03-08T00:00:15;49.81;;;48.64;;
50417;SDS011;36346;48.280;14.292;2024-03-08T00:02:47;49.28;;;48.10;;
50417;SDS011;36346;48.280;14.292;2024-03-08T00:05:15;50.43;;;49.15;;
50417;SDS011;36346;48.280;14.292;2024-03-08T00:07:43;50.76;;;49.21;;
50417;SDS011;36346;48.280;14.292;2024-03-08T00:10:12;51.52;;;50.05;;
50417;SDS011;36346;48.280;14.292;2024-03-08T00:12:45;52.09;;;50.42;;
50417;SDS011;36346;48.280;14.292;2024-03-08T00:15:15;52.17;;;50.79;;
50417;SDS011;36346;48.280;14.292;2024-03-08T00:17:46;51.05;;;49.90;;
50417;SDS011;36346;48.280;14.292;2024-03-08T00:20:16;53.83;;;51.77;;
50417;SDS011;36346;48.280;14.292;2024-03-08T00:22:47;52.87;;;51.13;;
50417;SDS011;36346;48.280;14.292;2024-03-08T00:25:15;52.13;;;50.71;;
50417;SDS011;36346;48.280;14.292;2024-03-08T00:27:44;53.77;;;52.42;;
50417;SDS011;36346;48.280;14.292;2024-03-08T00:30:12;54.43;;;52.73;;
50417;SDS011;36346;48.280;14.292;2024-03-08T00:32:43;54.66;;;52.94;;
50417;SDS011;36346;48.280;14.292;2024-03-08T00:35:11;53.83;;;52.13;;
50417;SDS011;36346;48.280;14.292;2024-03-08T00:37:40;53.09;;;51.23;;
50417;SDS011;36346;48.280;14.292;2024-03-08T00:40:14;53.63;;;52.21;;
50417;SDS011;36346;48.280;14.292;2024-03-08T00:42:42;54.40;;;52.91;;
50417;SDS011;36346;48.280;14.292;2024-03-08T00:45:11;53.36;;;51.79;;
50417;SDS011;36346;48.280;14.292;2024-03-08T00:47:42;54.71;;;53.14;;
50417;SDS011;36346;48.280;14.292;2024-03-08T00:50:12;55.29;;;53.73;;
50417;SDS011;36346;48.280;14.292;2024-03-08T00:52:40;55.74;;;54.20;;
50417;SDS011;36346;48.280;14.292;2024-03-08T00:55:08;54.43;;;52.52;;
50417;SDS011;36346;48.280;14.292;2024-03-08T00:57:39;55.75;;;53.92;;
50417;SDS011;36346;48.280;14.292;2024-03-08T01:00:07;55.46;;;54.10;;
50417;SDS011;36346;48.280;14.292;2024-03-08T01:02:40;56.99;;;55.19;;
50417;SDS011;36346;48.280;14.292;2024-03-08T01:05:08;56.22;;;54.45;;
50417;SDS011;36346;48.280;14.292;2024-03-08T01:07:36;57.15;;;55.46;;
50417;SDS011;36346;48.280;14.292;2024-03-08T01:10:05;57.47;;;55.56;;
50417;SDS011;36346;48.280;14.292;2024-03-08T01:12:39;58.26;;;56.52;;
50417;SDS011;36346;48.280;14.292;2024-03-08T01:15:11;58.38;;;56.65;;
50417;SDS011;36346;48.280;14.292;2024-03-08T01:17:39;58.88;;;57.24;;
50417;SDS011;36346;48.280;14.292;2024-03-08T01:20:07;59.74;;;57.99;;
50417;SDS011;36346;48.280;14.292;2024-03-08T01:22:40;60.11;;;58.13;;
50417;SDS011;36346;48.280;14.292;2024-03-08T01:25:08;60.11;;;57.83;;
50417;SDS011;36346;48.280;14.292;2024-03-08T01:27:36;58.70;;;56.87;;
50417;SDS011;36346;48.280;14.292;2024-03-08T01:30:04;59.33;;;57.10;;
50417;SDS011;36346;48.280;14.292;2024-03-08T01:32:33;57.51;;;55.43;;
50417;SDS011;36346;48.280;14.292;2024-03-08T01:35:01;57.28;;;55.66;;
50417;SDS011;36346;48.280;14.292;2024-03-08T01:37:30;57.17;;;55.45;;
50417;SDS011;36346;48.280;14.292;2024-03-08T01:39:58;56.01;;;54.25;;
50417;SDS011;36346;48.280;14.292;2024-03-08T01:42:26;56.87;;;54.86;;
50417;SDS011;36346;48.280;14.292;2024-03-08T01:44:55;56.06;;;54.17;;
50417;SDS011;36346;48.280;14.292;2024-03-08T01:47:23;54.92;;;53.22;;
50417;SDS011;36346;48.280;14.292;2024-03-08T01:49:51;55.81;;;53.79;;
50417;SDS011;36346;48.280;14.292;2024-03-08T01:52:20;56.43;;;54.51;;
50417;SDS011;36346;48.280;14.292;2024-03-08T01:54:50;55.41;;;53.72;;
50417;SDS011;36346;48.280;14.292;2024-03-08T01:57:18;54.77;;;53.18;;
50417;SDS011;36346;48.280;14.292;2024-03-08T01:59:47;54.95;;;53.51;;
50417;SDS011;36346;48.280;14.292;2024-03-08T02:02:16;56.28;;;54.08;;
50417;SDS011;36346;48.280;14.292;2024-03-08T02:04:46;55.72;;;53.90;;
50417;SDS011;36346;48.280;14.292;2024-03-08T02:07:15;57.33;;;55.62;;
50417;SDS011;36346;48.280;14.292;2024-03-08T02:09:43;58.49;;;56.25;;
50417;SDS011;36346;48.280;14.292;2024-03-08T02:12:11;56.65;;;54.87;;
50417;SDS011;36346;48.280;14.292;2024-03-08T02:14:40;56.63;;;55.01;;
50417;SDS011;36346;48.280;14.292;2024-03-08T02:17:08;55.35;;;53.73;;
50417;SDS011;36346;48.280;14.292;2024-03-08T02:19:36;56.88;;;54.90;;
50417;SDS011;36346;48.280;14.292;2024-03-08T02:22:05;55.73;;;54.18;;
50417;SDS011;36346;48.280;14.292;2024-03-08T02:24:33;56.34;;;54.53;;
50417;SDS011;36346;48.280;14.292;2024-03-08T02:27:02;56.93;;;55.07;;
50417;SDS011;36346;48.280;14.292;2024-03-08T02:29:30;57.16;;;55.38;;
50417;SDS011;36346;48.280;14.292;2024-03-08T02:31:59;56.99;;;54.85;;
50417;SDS011;36346;48.280;14.292;2024-03-08T02:34:27;55.36;;;53.70;;
50417;SDS011;36346;48.280;14.292;2024-03-08T02:36:55;54.90;;;53.56;;
50417;SDS011;36346;48.280;14.292;2024-03-08T02:39:24;55.80;;;54.04;;
50417;SDS011;36346;48.280;14.292;2024-03-08T02:41:52;56.25;;;54.33;;
50417;SDS011;36346;48.280;14.292;2024-03-08T02:44:20;54.97;;;53.24;;
50417;SDS011;36346;48.280;14.292;2024-03-08T02:46:49;54.10;;;52.61;;
50417;SDS011;36346;48.280;14.292;2024-03-08T02:49:18;54.22;;;52.41;;
50417;SDS011;36346;48.280;14.292;2024-03-08T02:51:46;52.59;;;50.64;;
50417;SDS011;36346;48.280;14.292;2024-03-08T02:54:14;52.18;;;50.26;;
50417;SDS011;36346;48.280;14.292;2024-03-08T02:56:45;52.68;;;51.13;;
50417;SDS011;36346;48.280;14.292;2024-03-08T02:59:18;51.48;;;50.15;;
50417;SDS011;36346;48.280;14.292;2024-03-08T03:01:47;52.53;;;51.05;;
50417;SDS011;36346;48.280;14.292;2024-03-08T03:04:15;51.67;;;50.08;;
50417;SDS011;36346;48.280;14.292;2024-03-08T03:06:43;51.30;;;49.96;;
50417;SDS011;36346;48.280;14.292;2024-03-08T03:09:11;50.56;;;49.11;;
50417;SDS011;36346;48.280;14.292;2024-03-08T03:11:40;51.24;;;49.99;;
50417;SDS011;36346;48.280;14.292;2024-03-08T03:14:08;51.85;;;50.04;;
50417;SDS011;36346;48.280;14.292;2024-03-08T03:16:36;50.91;;;49.38;;
50417;SDS011;36346;48.280;14.292;2024-03-08T03:19:05;49.06;;;47.68;;
50417;SDS011;36346;48.280;14.292;2024-03-08T03:21:33;49.72;;;48.22;;
50417;SDS011;36346;48.280;14.292;2024-03-08T03:24:04;48.56;;;47.24;;
50417;SDS011;36346;48.280;14.292;2024-03-08T03:26:38;49.57;;;47.91;;
50417;SDS011;36346;48.280;14.292;2024-03-08T03:29:09;49.81;;;48.38;;
50417;SDS011;36346;48.280;14.292;2024-03-08T03:31:38;50.13;;;48.35;;
50417;SDS011;36346;48.280;14.292;2024-03-08T03:34:08;50.04;;;48.25;;
50417;SDS011;36346;48.280;14.292;2024-03-08T03:36:36;49.82;;;48.47;;
50417;SDS011;36346;48.280;14.292;2024-03-08T03:39:06;50.47;;;48.84;;
50417;SDS011;36346;48.280;14.292;2024-03-08T03:41:38;50.63;;;49.20;;
50417;SDS011;36346;48.280;14.292;2024-03-08T03:44:08;52.17;;;50.66;;
50417;SDS011;36346;48.280;14.292;2024-03-08T03:46:36;50.77;;;49.04;;
50417;SDS011;36346;48.280;14.292;2024-03-08T03:49:04;51.42;;;49.64;;
50417;SDS011;36346;48.280;14.292;2024-03-08T03:51:32;49.92;;;48.55;;
50417;SDS011;36346;48.280;14.292;2024-03-08T03:54:01;49.25;;;47.85;;
50417;SDS011;36346;48.280;14.292;2024-03-08T03:56:31;49.17;;;47.97;;
50417;SDS011;36346;48.280;14.292;2024-03-08T03:58:59;50.52;;;48.91;;
50417;SDS011;36346;48.280;14.292;2024-03-08T04:01:27;50.90;;;49.29;;
50417;SDS011;36346;48.280;14.292;2024-03-08T04:03:57;51.05;;;49.32;;
50417;SDS011;36346;48.280;14.292;2024-03-08T04:06:25;50.32;;;48.82;;
50417;SDS011;36346;48.280;14.292;2024-03-08T04:08:53;49.65;;;47.86;;
50417;SDS011;36346;48.280;14.292;2024-03-08T04:11:21;49.60;;;48.28;;
50417;SDS011;36346;48.280;14.292;2024-03-08T04:13:49;48.97;;;47.65;;
50417;SDS011;36346;48.280;14.292;2024-03-08T04:16:17;50.51;;;49.23;;
50417;SDS011;36346;48.280;14.292;2024-03-08T04:18:46;49.69;;;48.23;;
50417;SDS011;36346;48.280;14.292;2024-03-08T04:21:15;48.91;;;47.75;;
50417;SDS011;36346;48.280;14.292;2024-03-08T04:23:43;49.85;;;48.31;;
50417;SDS011;36346;48.280;14.292;2024-03-08T04:26:13;49.48;;;48.16;;
50417;SDS011;36346;48.280;14.292;2024-03-08T04:28:43;47.71;;;46.64;;
50417;SDS011;36346;48.280;14.292;2024-03-08T04:31:11;48.40;;;46.76;;
50417;SDS011;36346;48.280;14.292;2024-03-08T04:33:39;47.59;;;46.26;;
50417;SDS011;36346;48.280;14.292;2024-03-08T04:36:08;49.48;;;47.81;;
50417;SDS011;36346;48.280;14.292;2024-03-08T04:38:36;49.50;;;48.04;;
50417;SDS011;36346;48.280;14.292;2024-03-08T04:41:04;49.32;;;47.95;;
50417;SDS011;36346;48.280;14.292;2024-03-08T04:43:33;50.44;;;49.08;;
50417;SDS011;36346;48.280;14.292;2024-03-08T04:46:02;50.59;;;49.09;;
50417;SDS011;36346;48.280;14.292;2024-03-08T04:48:31;50.62;;;49.22;;
50417;SDS011;36346;48.280;14.292;2024-03-08T04:50:59;50.74;;;49.20;;
50417;SDS011;36346;48.280;14.292;2024-03-08T04:53:28;50.99;;;49.37;;
50417;SDS011;36346;48.280;14.292;2024-03-08T04:55:56;50.37;;;48.57;;
50417;SDS011;36346;48.280;14.292;2024-03-08T04:58:25;48.97;;;47.63;;
50417;SDS011;36346;48.280;14.292;2024-03-08T05:00:53;50.74;;;49.54;;
50417;SDS011;36346;48.280;14.292;2024-03-08T05:03:22;49.85;;;48.35;;
50417;SDS011;36346;48.280;14.292;2024-03-08T05:05:53;49.99;;;48.62;;
50417;SDS011;36346;48.280;14.292;2024-03-08T05:08:21;50.64;;;49.24;;
50417;SDS011;36346;48.280;14.292;2024-03-08T05:10:49;51.39;;;49.45;;
50417;SDS011;36346;48.280;14.292;2024-03-08T05:13:17;48.91;;;47.21;;
50417;SDS011;36346;48.280;14.292;2024-03-08T05:15:49;49.75;;;48.00;;
50417;SDS011;36346;48.280;14.292;2024-03-08T05:18:20;50.84;;;49.39;;
50417;SDS011;36346;48.280;14.292;2024-03-08T05:20:49;50.28;;;48.95;;
50417;SDS011;36346;48.280;14.292;2024-03-08T05:23:18;50.58;;;49.08;;
50417;SDS011;36346;48.280;14.292;2024-03-08T05:25:47;50.02;;;48.77;;
50417;SDS011;36346;48.280;14.292;2024-03-08T05:28:15;49.03;;;47.55;;
50417;SDS011;36346;48.280;14.292;2024-03-08T05:30:43;48.78;;;47.55;;
50417;SDS011;36346;48.280;14.292;2024-03-08T05:33:12;48.98;;;47.31;;
50417;SDS011;36346;48.280;14.292;2024-03-08T05:35:42;48.68;;;47.62;;
50417;SDS011;36346;48.280;14.292;2024-03-08T05:38:11;49.52;;;48.21;;
50417;SDS011;36346;48.280;14.292;2024-03-08T05:40:40;50.87;;;49.37;;
50417;SDS011;36346;48.280;14.292;2024-03-08T05:43:11;49.69;;;48.56;;
50417;SDS011;36346;48.280;14.292;2024-03-08T05:45:42;49.68;;;48.15;;
50417;SDS011;36346;48.280;14.292;2024-03-08T05:48:10;50.04;;;48.52;;
50417;SDS011;36346;48.280;14.292;2024-03-08T05:50:40;48.46;;;47.24;;
50417;SDS011;36346;48.280;14.292;2024-03-08T05:53:08;49.08;;;47.77;;
50417;SDS011;36346;48.280;14.292;2024-03-08T05:55:36;50.43;;;49.02;;
50417;SDS011;36346;48.280;14.292;2024-03-08T05:58:04;50.11;;;49.19;;
50417;SDS011;36346;48.280;14.292;2024-03-08T06:00:35;49.91;;;48.61;;
50417;SDS011;36346;48.280;14.292;2024-03-08T06:03:04;51.89;;;50.53;;
50417;SDS011;36346;48.280;14.292;2024-03-08T06:05:32;63.54;;;59.81;;
50417;SDS011;36346;48.280;14.292;2024-03-08T06:08:01;64.29;;;60.38;;
50417;SDS011;36346;48.280;14.292;2024-03-08T06:10:29;62.04;;;58.67;;
50417;SDS011;36346;48.280;14.292;2024-03-08T06:12:57;56.31;;;54.06;;
50417;SDS011;36346;48.280;14.292;2024-03-08T06:15:25;51.44;;;49.85;;
50417;SDS011;36346;48.280;14.292;2024-03-08T06:17:54;50.09;;;48.54;;
50417;SDS011;36346;48.280;14.292;2024-03-08T06:20:23;48.85;;;47.84;;
50417;SDS011;36346;48.280;14.292;2024-03-08T06:22:54;48.78;;;47.57;;
50417;SDS011;36346;48.280;14.292;2024-03-08T06:25:22;47.47;;;46.30;;
50417;SDS011;36346;48.280;14.292;2024-03-08T06:27:50;47.98;;;46.69;;
50417;SDS011;36346;48.280;14.292;2024-03-08T06:30:19;47.39;;;46.46;;
50417;SDS011;36346;48.280;14.292;2024-03-08T06:32:48;46.17;;;45.18;;
50417;SDS011;36346;48.280;14.292;2024-03-08T06:35:17;46.10;;;45.12;;
50417;SDS011;36346;48.280;14.292;2024-03-08T06:37:45;45.58;;;44.55;;
50417;SDS011;36346;48.280;14.292;2024-03-08T06:40:13;47.49;;;46.10;;
50417;SDS011;36346;48.280;14.292;2024-03-08T06:42:42;46.94;;;45.74;;
50417;SDS011;36346;48.280;14.292;2024-03-08T06:45:10;45.83;;;44.85;;
50417;SDS011;36346;48.280;14.292;2024-03-08T06:47:40;47.72;;;46.32;;
50417;SDS011;36346;48.280;14.292;2024-03-08T06:50:09;46.00;;;45.05;;
50417;SDS011;36346;48.280;14.292;2024-03-08T06:52:39;46.25;;;45.37;;
50417;SDS011;36346;48.280;14.292;2024-03-08T06:55:08;46.17;;;44.83;;
50417;SDS011;36346;48.280;14.292;2024-03-08T06:57:40;46.41;;;45.41;;
50417;SDS011;36346;48.280;14.292;2024-03-08T07:00:08;46.33;;;45.41;;
50417;SDS011;36346;48.280;14.292;2024-03-08T07:02:46;45.98;;;44.96;;
50417;SDS011;36346;48.280;14.292;2024-03-08T07:05:16;45.20;;;44.24;;
50417;SDS011;36346;48.280;14.292;2024-03-08T07:07:45;44.93;;;44.04;;
50417;SDS011;36346;48.280;14.292;2024-03-08T07:10:16;45.18;;;43.61;;
50417;SDS011;36346;48.280;14.292;2024-03-08T07:12:45;45.85;;;44.68;;
50417;SDS011;36346;48.280;14.292;2024-03-08T07:15:14;44.71;;;43.54;;
50417;SDS011;36346;48.280;14.292;2024-03-08T07:17:43;45.11;;;44.12;;
50417;SDS011;36346;48.280;14.292;2024-03-08T07:20:12;43.38;;;42.48;;
50417;SDS011;36346;48.280;14.292;2024-03-08T07:22:43;43.35;;;42.22;;
50417;SDS011;36346;48.280;14.292;2024-03-08T07:25:15;43.59;;;42.40;;
50417;SDS011;36346;48.280;14.292;2024-03-08T07:27:54;43.32;;;42.27;;
50417;SDS011;36346;48.280;14.292;2024-03-08T07:30:24;43.15;;;42.30;;
50417;SDS011;36346;48.280;14.292;2024-03-08T07:33:13;44.38;;;43.50;;
50417;SDS011;36346;48.280;14.292;2024-03-08T07:35:42;44.05;;;43.22;;
50417;SDS011;36346;48.280;14.292;2024-03-08T07:38:11;43.29;;;42.14;;
50417;SDS011;36346;48.280;14.292;2024-03-08T07:40:40;43.22;;;41.88;;
50417;SDS011;36346;48.280;14.292;2024-03-08T07:43:12;43.49;;;42.53;;
50417;SDS011;36346;48.280;14.292;2024-03-08T07:45:40;44.86;;;43.83;;
50417;SDS011;36346;48.280;14.292;2024-03-08T07:48:09;46.99;;;45.85;;
50417;SDS011;36346;48.280;14.292;2024-03-08T07:50:38;45.53;;;44.44;;
50417;SDS011;36346;48.280;14.292;2024-03-08T07:53:08;44.29;;;43.04;;
50417;SDS011;36346;48.280;14.292;2024-03-08T07:55:36;42.88;;;41.89;;
50417;SDS011;36346;48.280;14.292;2024-03-08T07:58:05;43.89;;;42.95;;
50417;SDS011;36346;48.280;14.292;2024-03-08T08:00:34;44.27;;;43.23;;
50417;SDS011;36346;48.280;14.292;2024-03-08T08:03:04;43.57;;;42.97;;
50417;SDS011;36346;48.280;14.292;2024-03-08T08:05:33;42.18;;;41.40;;
50417;SDS011;36346;48.280;14.292;2024-03-08T08:08:03;41.60;;;40.83;;
50417;SDS011;36346;48.280;14.292;2024-03-08T08:10:34;40.05;;;39.09;;
50417;SDS011;36346;48.280;14.292;2024-03-08T08:13:02;40.84;;;40.00;;
50417;SDS011;36346;48.280;14.292;2024-03-08T08:15:33;37.60;;;36.95;;
50417;SDS011;36346;48.280;14.292;2024-03-08T08:18:03;38.99;;;38.11;;
50417;SDS011;36346;48.280;14.292;2024-03-08T08:20:34;38.28;;;37.54;;
50417;SDS011;36346;48.280;14.292;2024-03-08T08:23:02;39.05;;;38.29;;
50417;SDS011;36346;48.280;14.292;2024-03-08T08:25:31;38.47;;;37.59;;
50417;SDS011;36346;48.280;14.292;2024-03-08T08:28:02;38.81;;;38.24;;
50417;SDS011;36346;48.280;14.292;2024-03-08T08:30:32;38.37;;;37.74;;
50417;SDS011;36346;48.280;14.292;2024-03-08T08:33:01;39.70;;;39.06;;
50417;SDS011;36346;48.280;14.292;2024-03-08T08:35:29;41.49;;;40.49;;
50417;SDS011;36346;48.280;14.292;2024-03-08T08:37:57;39.04;;;38.07;;
50417;SDS011;36346;48.280;14.292;2024-03-08T08:40:26;41.33;;;40.33;;
50417;SDS011;36346;48.280;14.292;2024-03-08T08:42:57;39.79;;;38.82;;
50417;SDS011;36346;48.280;14.292;2024-03-08T08:45:27;35.65;;;34.93;;
50417;SDS011;36346;48.280;14.292;2024-03-08T08:47:55;31.83;;;31.40;;
50417;SDS011;36346;48.280;14.292;2024-03-08T08:50:25;30.29;;;29.93;;
50417;SDS011;36346;48.280;14.292;2024-03-08T08:52:56;30.43;;;29.93;;
50417;SDS011;36346;48.280;14.292;2024-03-08T08:55:24;28.93;;;28.47;;
50417;SDS011;36346;48.280;14.292;2024-03-08T08:57:54;27.81;;;27.37;;
50417;SDS011;36346;48.280;14.292;2024-03-08T09:00:22;26.53;;;26.15;;
50417;SDS011;36346;48.280;14.292;2024-03-08T09:02:55;25.61;;;25.34;;
50417;SDS011;36346;48.280;14.292;2024-03-08T09:05:26;26.79;;;26.42;;
50417;SDS011;36346;48.280;14.292;2024-03-08T09:07:54;25.35;;;24.92;;
50417;SDS011;36346;48.280;14.292;2024-03-08T09:10:23;25.19;;;24.73;;
50417;SDS011;36346;48.280;14.292;2024-03-08T09:12:57;24.74;;;24.44;;
50417;SDS011;36346;48.280;14.292;2024-03-08T09:15:27;24.21;;;23.92;;
50417;SDS011;36346;48.280;14.292;2024-03-08T09:17:57;23.26;;;23.02;;
50417;SDS011;36346;48.280;14.292;2024-03-08T09:20:26;22.71;;;22.34;;
50417;SDS011;36346;48.280;14.292;2024-03-08T09:22:54;23.12;;;22.81;;
50417;SDS011;36346;48.280;14.292;2024-03-08T09:25:23;22.14;;;21.58;;
50417;SDS011;36346;48.280;14.292;2024-03-08T09:27:51;21.88;;;21.61;;
50417;SDS011;36346;48.280;14.292;2024-03-08T09:30:19;22.96;;;22.57;;
50417;SDS011;36346;48.280;14.292;2024-03-08T09:32:49;22.95;;;22.60;;
50417;SDS011;36346;48.280;14.292;2024-03-08T09:35:19;24.17;;;23.73;;
50417;SDS011;36346;48.280;14.292;2024-03-08T09:37:47;24.87;;;24.53;;
50417;SDS011;36346;48.280;14.292;2024-03-08T09:40:19;25.70;;;25.31;;
50417;SDS011;36346;48.280;14.292;2024-03-08T09:42:48;23.41;;;23.15;;
50417;SDS011;36346;48.280;14.292;2024-03-08T09:45:16;23.37;;;22.99;;
50417;SDS011;36346;48.280;14.292;2024-03-08T09:47:44;22.43;;;22.14;;
50417;SDS011;36346;48.280;14.292;2024-03-08T09:50:13;23.02;;;22.45;;
50417;SDS011;36346;48.280;14.292;2024-03-08T09:52:42;22.92;;;22.50;;
50417;SDS011;36346;48.280;14.292;2024-03-08T09:55:11;23.12;;;22.61;;
50417;SDS011;36346;48.280;14.292;2024-03-08T09:57:40;23.57;;;23.11;;
50417;SDS011;36346;48.280;14.292;2024-03-08T10:00:30;23.45;;;22.91;;
50417;SDS011;36346;48.280;14.292;2024-03-08T10:03:02;23.27;;;22.85;;
50417;SDS011;36346;48.280;14.292;2024-03-08T10:05:31;22.63;;;22.20;;
50417;SDS011;36346;48.280;14.292;2024-03-08T10:08:01;21.93;;;21.59;;
50417;SDS011;36346;48.280;14.292;2024-03-08T10:10:29;22.23;;;21.94;;
50417;SDS011;36346;48.280;14.292;2024-03-08T10:12:57;21.03;;;20.50;;
50417;SDS011;36346;48.280;14.292;2024-03-08T10:15:27;20.25;;;19.97;;
50417;SDS011;36346;48.280;14.292;2024-03-08T10:17:57;19.27;;;18.97;;
50417;SDS011;36346;48.280;14.292;2024-03-08T10:20:25;18.38;;;18.14;;
50417;SDS011;36346;48.280;14.292;2024-03-08T10:22:54;17.97;;;17.73;;
50417;SDS011;36346;48.280;14.292;2024-03-08T10:25:37;17.31;;;17.13;;
50417;SDS011;36346;48.280;14.292;2024-03-08T10:28:05;18.44;;;18.18;;
50417;SDS011;36346;48.280;14.292;2024-03-08T10:30:33;18.30;;;18.04;;
50417;SDS011;36346;48.280;14.292;2024-03-08T10:33:02;17.86;;;17.70;;
50417;SDS011;36346;48.280;14.292;2024-03-08T10:35:33;18.21;;;17.85;;
50417;SDS011;36346;48.280;14.292;2024-03-08T10:38:01;17.95;;;17.74;;
50417;SDS011;36346;48.280;14.292;2024-03-08T10:40:35;17.92;;;17.66;;
50417;SDS011;36346;48.280;14.292;2024-03-08T10:43:09;18.45;;;18.18;;
50417;SDS011;36346;48.280;14.292;2024-03-08T10:45:46;16.91;;;16.77;;
50417;SDS011;36346;48.280;14.292;2024-03-08T10:48:29;17.19;;;16.87;;
50417;SDS011;36346;48.280;14.292;2024-03-08T10:51:06;17.39;;;17.18;;
50417;SDS011;36346;48.280;14.292;2024-03-08T10:53:35;18.78;;;18.47;;
50417;SDS011;36346;48.280;14.292;2024-03-08T10:56:04;19.57;;;19.39;;
50417;SDS011;36346;48.280;14.292;2024-03-08T10:58:33;19.51;;;19.38;;
50417;SDS011;36346;48.280;14.292;2024-03-08T11:01:03;19.53;;;19.34;;
50417;SDS011;36346;48.280;14.292;2024-03-08T11:06:08;16.86;;;16.55;;
50417;SDS011;36346;48.280;14.292;2024-03-08T11:14:48;16.94;;;16.78;;
50417;SDS011;36346;48.280;14.292;2024-03-08T11:17:25;17.75;;;17.44;;
50417;SDS011;36346;48.280;14.292;2024-03-08T11:20:02;18.37;;;18.11;;
50417;SDS011;36346;48.280;14.292;2024-03-08T11:22:33;17.60;;;17.42;;
50417;SDS011;36346;48.280;14.292;2024-03-08T11:25:05;17.99;;;17.70;;
50417;SDS011;36346;48.280;14.292;2024-03-08T11:27:40;17.30;;;17.04;;
50417;SDS011;36346;48.280;14.292;2024-03-08T11:30:21;16.98;;;16.80;;
50417;SDS011;36346;48.280;14.292;2024-03-08T11:32:52;16.77;;;16.64;;
50417;SDS011;36346;48.280;14.292;2024-03-08T11:35:21;16.92;;;16.72;;
50417;SDS011;36346;48.280;14.292;2024-03-08T11:37:53;16.95;;;16.71;;
50417;SDS011;36346;48.280;14.292;2024-03-08T11:40:21;16.91;;;16.70;;
50417;SDS011;36346;48.280;14.292;2024-03-08T11:42:50;16.88;;;16.69;;
50417;SDS011;36346;48.280;14.292;2024-03-08T11:45:23;18.12;;;17.92;;
50417;SDS011;36346;48.280;14.292;2024-03-08T11:47:51;18.29;;;18.09;;
50417;SDS011;36346;48.280;14.292;2024-03-08T11:50:24;17.36;;;17.09;;
50417;SDS011;36346;48.280;14.292;2024-03-08T11:52:52;16.14;;;15.91;;
50417;SDS011;36346;48.280;14.292;2024-03-08T11:55:20;15.54;;;15.27;;
50417;SDS011;36346;48.280;14.292;2024-03-08T11:57:49;15.24;;;15.02;;
50417;SDS011;36346;48.280;14.292;2024-03-08T12:00:18;16.29;;;16.03;;
50417;SDS011;36346;48.280;14.292;2024-03-08T12:03:02;16.62;;;16.37;;
50417;SDS011;36346;48.280;14.292;2024-03-08T12:05:32;15.43;;;15.29;;
50417;SDS011;36346;48.280;14.292;2024-03-08T12:08:03;15.66;;;15.47;;
50417;SDS011;36346;48.280;14.292;2024-03-08T12:10:40;15.53;;;15.42;;
50417;SDS011;36346;48.280;14.292;2024-03-08T12:13:08;15.45;;;15.29;;
50417;SDS011;36346;48.280;14.292;2024-03-08T12:15:41;14.78;;;14.68;;
50417;SDS011;36346;48.280;14.292;2024-03-08T12:18:09;14.86;;;14.73;;
50417;SDS011;36346;48.280;14.292;2024-03-08T12:20:38;14.58;;;14.45;;
50417;SDS011;36346;48.280;14.292;2024-03-08T12:23:07;15.59;;;15.47;;
50417;SDS011;36346;48.280;14.292;2024-03-08T12:25:43;16.14;;;15.90;;
50417;SDS011;36346;48.280;14.292;2024-03-08T12:28:12;15.97;;;15.79;;
50417;SDS011;36346;48.280;14.292;2024-03-08T12:30:46;15.64;;;15.51;;
50417;SDS011;36346;48.280;14.292;2024-03-08T12:33:16;15.28;;;15.24;;
50417;SDS011;36346;48.280;14.292;2024-03-08T12:35:51;16.29;;;16.19;;
50417;SDS011;36346;48.280;14.292;2024-03-08T12:38:29;17.90;;;17.73;;
50417;SDS011;36346;48.280;14.292;2024-03-08T12:40:59;17.28;;;17.16;;
50417;SDS011;36346;48.280;14.292;2024-03-08T12:43:29;16.15;;;16.04;;
50417;SDS011;36346;48.280;14.292;2024-03-08T12:46:00;15.82;;;15.66;;
50417;SDS011;36346;48.280;14.292;2024-03-08T12:48:28;13.58;;;13.49;;
50417;SDS011;36346;48.280;14.292;2024-03-08T12:50:56;13.36;;;13.23;;
50417;SDS011;36346;48.280;14.292;2024-03-08T12:53:24;12.33;;;12.17;;
50417;SDS011;36346;48.280;14.292;2024-03-08T12:55:53;12.87;;;12.74;;
50417;SDS011;36346;48.280;14.292;2024-03-08T12:58:24;12.89;;;12.74;;
50417;SDS011;36346;48.280;14.292;2024-03-08T13:00:54;12.75;;;12.59;;
50417;SDS011;36346;48.280;14.292;2024-03-08T13:03:23;12.35;;;12.33;;
50417;SDS011;36346;48.280;14.292;2024-03-08T13:05:51;14.58;;;14.48;;
50417;SDS011;36346;48.280;14.292;2024-03-08T13:08:19;13.05;;;12.91;;
50417;SDS011;36346;48.280;14.292;2024-03-08T13:10:48;11.96;;;11.92;;
50417;SDS011;36346;48.280;14.292;2024-03-08T13:13:18;11.92;;;11.91;;
50417;SDS011;36346;48.280;14.292;2024-03-08T13:15:47;11.90;;;11.79;;
50417;SDS011;36346;48.280;14.292;2024-03-08T13:18:17;12.51;;;12.40;;
50417;SDS011;36346;48.280;14.292;2024-03-08T13:20:46;11.56;;;11.53;;
50417;SDS011;36346;48.280;14.292;2024-03-08T13:23:17;12.81;;;12.74;;
50417;SDS011;36346;48.280;14.292;2024-03-08T13:25:45;12.35;;;12.29;;
50417;SDS011;36346;48.280;14.292;2024-03-08T13:28:17;12.51;;;12.49;;
50417;SDS011;36346;48.280;14.292;2024-03-08T13:31:08;11.45;;;11.38;;
50417;SDS011;36346;48.280;14.292;2024-03-08T13:33:39;12.91;;;12.83;;
50417;SDS011;36346;48.280;14.292;2024-03-08T13:36:07;11.82;;;11.75;;
50417;SDS011;36346;48.280;14.292;2024-03-08T13:38:45;10.98;;;10.97;;
50417;SDS011;36346;48.280;14.292;2024-03-08T13:41:15;10.51;;;10.51;;
50417;SDS011;36346;48.280;14.292;2024-03-08T13:43:45;10.54;;;10.54;;
50417;SDS011;36346;48.280;14.292;2024-03-08T13:46:17;9.78;;;9.78;;
50417;SDS011;36346;48.280;14.292;2024-03-08T13:48:46;9.13;;;9.13;;
50417;SDS011;36346;48.280;14.292;2024-03-08T13:51:14;10.23;;;10.22;;
50417;SDS011;36346;48.280;14.292;2024-03-08T13:53:45;11.09;;;11.09;;
50417;SDS011;36346;48.280;14.292;2024-03-08T13:56:13;9.35;;;9.35;;
50417;SDS011;36346;48.280;14.292;2024-03-08T13:58:42;9.80;;;9.80;;
50417;SDS011;36346;48.280;14.292;2024-03-08T14:01:11;10.01;;;10.01;;
50417;SDS011;36346;48.280;14.292;2024-03-08T14:03:40;10.27;;;10.26;;
50417;SDS011;36346;48.280;14.292;2024-03-08T14:06:09;10.30;;;10.30;;
50417;SDS011;36346;48.280;14.292;2024-03-08T14:08:48;9.77;;;9.77;;
50417;SDS011;36346;48.280;14.292;2024-03-08T14:11:16;11.17;;;11.15;;
50417;SDS011;36346;48.280;14.292;2024-03-08T14:13:46;10.55;;;10.55;;
50417;SDS011;36346;48.280;14.292;2024-03-08T14:16:15;9.72;;;9.72;;
50417;SDS011;36346;48.280;14.292;2024-03-08T14:18:43;10.43;;;10.43;;
50417;SDS011;36346;48.280;14.292;2024-03-08T14:21:11;10.72;;;10.71;;
50417;SDS011;36346;48.280;14.292;2024-03-08T14:23:42;10.12;;;10.12;;
50417;SDS011;36346;48.280;14.292;2024-03-08T14:26:11;10.49;;;10.49;;
50417;SDS011;36346;48.280;14.292;2024-03-08T14:28:39;10.50;;;10.46;;
50417;SDS011;36346;48.280;14.292;2024-03-08T14:31:07;10.95;;;10.92;;